createdAt,value
2018-09-04T00:00:31.867Z,19.39
2018-09-04T00:01:31.814Z,19.41
2018-09-04T00:02:31.750Z,19.42
2018-09-04T00:03:31.680Z,19.36
2018-09-04T00:04:31.629Z,19.30
2018-09-04T00:05:31.613Z,19.34
2018-09-04T00:06:31.546Z,19.36
2018-09-04T00:07:31.486Z,19.36
2018-09-04T00:08:31.451Z,19.36
2018-09-04T00:09:31.403Z,19.29
2018-09-04T00:10:31.400Z,19.27
2018-09-04T00:11:31.298Z,19.27
2018-09-04T00:12:31.267Z,19.30
2018-09-04T00:13:31.206Z,19.37
2018-09-04T00:14:31.170Z,19.37
2018-09-04T00:15:31.146Z,19.39
2018-09-04T00:16:31.077Z,19.46
2018-09-04T00:17:31.039Z,19.42
2018-09-04T00:18:30.967Z,19.41
2018-09-04T00:19:30.933Z,19.45
2018-09-04T00:20:30.944Z,19.42
2018-09-04T00:21:30.854Z,19.36
2018-09-04T00:22:30.790Z,19.42
2018-09-04T00:23:30.734Z,19.42
2018-09-04T00:24:30.686Z,19.30
2018-09-04T00:25:30.670Z,19.39
2018-09-04T00:26:30.612Z,19.45
2018-09-04T00:27:30.547Z,19.44
2018-09-04T00:28:30.533Z,19.49
2018-09-04T00:29:30.464Z,19.49
2018-09-04T00:30:30.439Z,19.51
2018-09-04T00:31:30.421Z,19.39
2018-09-04T00:32:30.332Z,19.46
2018-09-04T00:33:30.273Z,19.54
2018-09-04T00:34:30.278Z,19.55
2018-09-04T00:35:30.220Z,19.51
2018-09-04T00:36:30.133Z,19.49
2018-09-04T00:37:30.103Z,19.46
2018-09-04T00:38:30.052Z,19.49
2018-09-04T00:39:30.001Z,19.48
2018-09-04T00:40:29.985Z,19.44
2018-09-04T00:41:29.929Z,19.49
2018-09-04T00:42:29.849Z,19.42
2018-09-04T00:43:29.815Z,19.39
2018-09-04T00:44:29.779Z,19.29
2018-09-04T00:45:29.745Z,19.33
2018-09-04T00:46:29.668Z,19.29
2018-09-04T00:47:29.620Z,19.24
2018-09-04T00:48:29.574Z,19.29
2018-09-04T00:49:29.534Z,19.22
2018-09-04T00:50:29.511Z,19.19
2018-09-04T00:51:29.435Z,19.11
2018-09-04T00:52:29.397Z,19.23
2018-09-04T00:53:29.356Z,19.18
2018-09-04T00:54:29.283Z,19.16
2018-09-04T00:55:29.266Z,19.12
2018-09-04T00:56:29.202Z,19.00
2018-09-04T00:57:29.137Z,19.08
2018-09-04T00:58:29.102Z,19.09
2018-09-04T00:59:29.059Z,19.05
2018-09-04T01:00:29.036Z,19.11
2018-09-04T01:01:28.962Z,19.11
2018-09-04T01:02:28.922Z,19.05
2018-09-04T01:03:28.872Z,19.08
2018-09-04T01:04:28.823Z,19.12
2018-09-04T01:05:28.777Z,19.07
2018-09-04T01:06:28.747Z,19.11
2018-09-04T01:07:28.686Z,19.16
2018-09-04T01:08:28.632Z,19.09
2018-09-04T01:09:28.594Z,19.08
2018-09-04T01:10:28.542Z,19.11
2018-09-04T01:11:28.517Z,18.98
2018-09-04T01:12:28.456Z,18.98
2018-09-04T01:13:28.416Z,19.00
2018-09-04T01:14:28.370Z,19.07
2018-09-04T01:15:28.303Z,19.11
2018-09-04T01:16:28.292Z,19.05
2018-09-04T01:17:28.211Z,19.05
2018-09-04T01:18:28.167Z,19.04
2018-09-04T01:19:28.113Z,18.99
2018-09-04T01:20:28.078Z,19.04
2018-09-04T01:21:28.041Z,18.96
2018-09-04T01:22:27.980Z,18.98
2018-09-04T01:23:27.938Z,18.89
2018-09-04T01:24:27.877Z,19.00
2018-09-04T01:25:27.846Z,18.98
2018-09-04T01:26:27.830Z,18.96
2018-09-04T01:27:27.745Z,19.00
2018-09-04T01:28:27.679Z,19.08
2018-09-04T01:29:27.650Z,19.11
2018-09-04T01:30:27.615Z,19.08
2018-09-04T01:31:27.616Z,18.99
2018-09-04T01:32:27.509Z,19.07
2018-09-04T01:33:27.458Z,19.05
2018-09-04T01:34:27.416Z,18.98
2018-09-04T01:35:27.370Z,18.99
2018-09-04T01:36:27.355Z,19.05
2018-09-04T01:37:27.276Z,18.96
2018-09-04T01:38:27.233Z,19.05
2018-09-04T01:39:27.179Z,18.89
2018-09-04T01:40:27.136Z,18.92
2018-09-04T01:41:27.129Z,18.98
2018-09-04T01:42:27.038Z,18.99
2018-09-04T01:43:26.994Z,19.04
2018-09-04T01:44:26.955Z,18.98
2018-09-04T01:45:26.906Z,18.99
2018-09-04T01:46:26.882Z,18.99
2018-09-04T01:47:26.794Z,19.07
2018-09-04T01:48:26.779Z,18.98
2018-09-04T01:49:26.704Z,18.98
2018-09-04T01:50:26.667Z,19.04
2018-09-04T01:51:26.642Z,18.95
2018-09-04T01:52:26.565Z,18.92
2018-09-04T01:53:26.523Z,18.92
2018-09-04T01:54:26.476Z,18.90
2018-09-04T01:55:26.423Z,18.89
2018-09-04T01:56:26.397Z,18.92
2018-09-04T01:57:26.337Z,18.92
2018-09-04T01:58:26.280Z,19.05
2018-09-04T01:59:26.243Z,18.90
2018-09-04T02:00:26.199Z,18.92
2018-09-04T02:01:26.155Z,18.88
2018-09-04T02:02:26.102Z,18.88
2018-09-04T02:03:26.049Z,18.88
2018-09-04T02:04:26.017Z,18.88
2018-09-04T02:05:25.947Z,18.86
2018-09-04T02:06:25.951Z,18.86
2018-09-04T02:07:25.866Z,18.81
2018-09-04T02:08:25.816Z,18.80
2018-09-04T02:09:25.773Z,18.81
2018-09-04T02:10:25.719Z,18.88
2018-09-04T02:11:25.697Z,18.80
2018-09-04T02:12:25.615Z,18.89
2018-09-04T02:13:25.573Z,18.81
2018-09-04T02:14:25.528Z,18.89
2018-09-04T02:15:25.482Z,18.88
2018-09-04T02:16:25.437Z,18.80
2018-09-04T02:17:25.430Z,18.80
2018-09-04T02:18:25.332Z,18.88
2018-09-04T02:19:25.331Z,18.81
2018-09-04T02:20:25.248Z,18.81
2018-09-04T02:21:25.195Z,18.90
2018-09-04T02:22:25.172Z,18.89
2018-09-04T02:23:25.097Z,18.89
2018-09-04T02:24:25.051Z,18.93
2018-09-04T02:25:25.001Z,18.93
2018-09-04T02:26:24.974Z,18.93
2018-09-04T02:27:24.932Z,18.93
2018-09-04T02:28:24.868Z,18.90
2018-09-04T02:29:24.812Z,18.89
2018-09-04T02:30:24.776Z,18.88
2018-09-04T02:31:24.729Z,18.85
2018-09-04T02:32:24.697Z,18.86
2018-09-04T02:33:24.625Z,18.80
2018-09-04T02:34:24.590Z,18.74
2018-09-04T02:35:24.546Z,18.78
2018-09-04T02:36:24.483Z,18.78
2018-09-04T02:37:24.461Z,18.77
2018-09-04T02:38:24.388Z,18.77
2018-09-04T02:39:24.366Z,18.77
2018-09-04T02:40:24.303Z,18.74
2018-09-04T02:41:24.246Z,18.80
2018-09-04T02:42:24.222Z,18.68
2018-09-04T02:43:24.150Z,18.75
2018-09-04T02:44:24.113Z,18.66
2018-09-04T02:45:24.072Z,18.77
2018-09-04T02:46:24.023Z,18.68
2018-09-04T02:47:24.008Z,18.67
2018-09-04T02:48:23.926Z,18.75
2018-09-04T02:49:23.879Z,18.74
2018-09-04T02:50:23.824Z,18.73
2018-09-04T02:51:23.785Z,18.77
2018-09-04T02:52:23.755Z,18.73
2018-09-04T02:53:23.685Z,18.70
2018-09-04T02:54:23.640Z,18.78
2018-09-04T02:55:23.584Z,18.78
2018-09-04T02:56:23.548Z,18.78
2018-09-04T02:57:23.530Z,18.77
2018-09-04T02:58:23.441Z,18.77
2018-09-04T02:59:23.414Z,18.77
2018-09-04T03:00:23.355Z,18.77
2018-09-04T03:01:23.307Z,18.88
2018-09-04T03:02:23.291Z,18.80
2018-09-04T03:03:23.212Z,18.77
2018-09-04T03:04:23.168Z,18.83
2018-09-04T03:05:23.127Z,18.77
2018-09-04T03:06:23.063Z,18.81
2018-09-04T03:07:23.055Z,18.77
2018-09-04T03:08:22.990Z,18.77
2018-09-04T03:09:22.929Z,18.77
2018-09-04T03:10:22.886Z,18.66
2018-09-04T03:11:22.829Z,18.81
2018-09-04T03:12:22.815Z,18.78
2018-09-04T03:13:22.773Z,18.75
2018-09-04T03:14:22.702Z,18.80
2018-09-04T03:15:22.642Z,18.86
2018-09-04T03:16:22.596Z,18.78
2018-09-04T03:17:22.580Z,18.80
2018-09-04T03:18:22.500Z,18.78
2018-09-04T03:19:22.465Z,18.78
2018-09-04T03:20:22.419Z,18.85
2018-09-04T03:21:22.374Z,18.81
2018-09-04T03:22:22.347Z,18.83
2018-09-04T03:23:22.264Z,18.75
2018-09-04T03:24:22.236Z,18.90
2018-09-04T03:25:22.173Z,18.88
2018-09-04T03:26:22.130Z,18.88
2018-09-04T03:27:22.078Z,18.86
2018-09-04T03:28:22.058Z,18.93
2018-09-04T03:29:21.990Z,18.92
2018-09-04T03:30:21.941Z,18.99
2018-09-04T03:31:21.894Z,18.99
2018-09-04T03:32:21.870Z,18.96
2018-09-04T03:33:21.821Z,19.04
2018-09-04T03:34:21.748Z,19.04
2018-09-04T03:35:21.712Z,18.98
2018-09-04T03:36:21.675Z,18.99
2018-09-04T03:37:21.620Z,18.99
2018-09-04T03:38:21.619Z,19.00
2018-09-04T03:39:21.524Z,18.95
2018-09-04T03:40:21.464Z,18.95
2018-09-04T03:41:21.420Z,18.90
2018-09-04T03:42:21.393Z,18.95
2018-09-04T03:43:21.349Z,18.90
2018-09-04T03:44:21.334Z,18.80
2018-09-04T03:45:21.230Z,18.80
2018-09-04T03:46:21.182Z,18.74
2018-09-04T03:47:21.140Z,18.78
2018-09-04T03:48:21.124Z,18.77
2018-09-04T03:49:21.046Z,18.74
2018-09-04T03:50:20.997Z,18.73
2018-09-04T03:51:20.959Z,18.73
2018-09-04T03:52:20.962Z,18.68
2018-09-04T03:53:20.886Z,18.67
2018-09-04T03:54:20.815Z,18.66
2018-09-04T03:55:20.760Z,18.81
2018-09-04T03:56:20.723Z,18.77
2018-09-04T03:57:20.668Z,18.68
2018-09-04T03:58:20.665Z,18.66
2018-09-04T03:59:20.570Z,18.75
2018-09-04T04:00:20.540Z,18.78
2018-09-04T04:01:20.540Z,18.71
2018-09-04T04:02:20.437Z,18.71
2018-09-04T04:03:20.414Z,18.74
2018-09-04T04:04:20.343Z,18.75
2018-09-04T04:05:20.308Z,18.78
2018-09-04T04:06:20.240Z,18.67
2018-09-04T04:07:20.197Z,18.68
2018-09-04T04:08:20.188Z,18.66
2018-09-04T04:09:20.108Z,18.67
2018-09-04T04:10:20.065Z,18.75
2018-09-04T04:11:20.021Z,18.67
2018-09-04T04:12:19.957Z,18.70
2018-09-04T04:13:19.947Z,18.63
2018-09-04T04:14:19.874Z,18.73
2018-09-04T04:15:19.815Z,18.75
2018-09-04T04:16:19.782Z,18.74
2018-09-04T04:17:19.726Z,18.75
2018-09-04T04:18:19.697Z,18.70
2018-09-04T04:19:19.629Z,18.66
2018-09-04T04:20:19.587Z,18.75
2018-09-04T04:21:19.538Z,18.74
2018-09-04T04:22:19.487Z,18.74
2018-09-04T04:23:19.485Z,18.75
2018-09-04T04:24:19.475Z,18.71
2018-09-04T04:25:19.357Z,18.70
2018-09-04T04:26:19.299Z,18.68
2018-09-04T04:27:19.264Z,18.77
2018-09-04T04:28:19.215Z,18.74
2018-09-04T04:29:19.193Z,18.75
2018-09-04T04:30:19.107Z,18.77
2018-09-04T04:31:19.062Z,18.81
2018-09-04T04:32:19.025Z,18.80
2018-09-04T04:33:18.969Z,18.74
2018-09-04T04:34:18.967Z,18.78
2018-09-04T04:35:18.893Z,18.67
2018-09-04T04:36:18.833Z,18.67
2018-09-04T04:37:18.799Z,18.78
2018-09-04T04:38:18.740Z,18.75
2018-09-04T04:39:18.713Z,18.77
2018-09-04T04:40:18.653Z,18.77
2018-09-04T04:41:18.601Z,18.74
2018-09-04T04:42:18.542Z,18.77
2018-09-04T04:43:18.501Z,18.81
2018-09-04T04:44:18.474Z,18.70
2018-09-04T04:45:18.408Z,18.73
2018-09-04T04:46:18.361Z,18.62
2018-09-04T04:47:18.310Z,18.60
2018-09-04T04:48:18.353Z,18.62
2018-09-04T04:49:18.269Z,18.55
2018-09-04T04:50:18.175Z,18.60
2018-09-04T04:51:18.123Z,18.55
2018-09-04T04:52:18.092Z,18.48
2018-09-04T04:53:18.036Z,18.58
2018-09-04T04:54:18.008Z,18.41
2018-09-04T04:55:17.931Z,18.43
2018-09-04T04:56:17.900Z,18.40
2018-09-04T04:57:17.848Z,18.43
2018-09-04T04:58:17.790Z,18.44
2018-09-04T04:59:17.767Z,18.41
2018-09-04T05:00:17.725Z,18.49
2018-09-04T05:01:17.652Z,18.43
2018-09-04T05:02:17.599Z,18.53
2018-09-04T05:03:17.551Z,18.43
2018-09-04T05:04:17.540Z,18.41
2018-09-04T05:05:17.470Z,18.43
2018-09-04T05:06:17.422Z,18.43
2018-09-04T05:07:17.363Z,18.43
2018-09-04T05:08:17.315Z,18.43
2018-09-04T05:09:17.302Z,18.44
2018-09-04T05:10:17.228Z,18.58
2018-09-04T05:11:17.262Z,18.53
2018-09-04T05:12:17.144Z,18.55
2018-09-04T05:13:17.081Z,18.60
2018-09-04T05:14:17.069Z,18.60
2018-09-04T05:15:16.993Z,18.62
2018-09-04T05:16:16.943Z,18.60
2018-09-04T05:17:16.890Z,18.56
2018-09-04T05:18:16.858Z,18.62
2018-09-04T05:19:16.846Z,18.62
2018-09-04T05:20:16.758Z,18.58
2018-09-04T05:21:16.707Z,18.63
2018-09-04T05:22:16.653Z,18.66
2018-09-04T05:23:16.606Z,18.63
2018-09-04T05:24:16.566Z,18.60
2018-09-04T05:25:16.564Z,18.66
2018-09-04T05:26:16.476Z,18.68
2018-09-04T05:27:16.434Z,18.58
2018-09-04T05:28:16.387Z,18.63
2018-09-04T05:29:16.383Z,18.63
2018-09-04T05:30:16.308Z,18.70
2018-09-04T05:31:16.234Z,18.73
2018-09-04T05:32:16.185Z,18.70
2018-09-04T05:33:16.149Z,18.70
2018-09-04T05:34:16.088Z,18.68
2018-09-04T05:35:16.077Z,18.66
2018-09-04T05:36:16.003Z,18.67
2018-09-04T05:37:15.950Z,18.70
2018-09-04T05:38:15.902Z,18.70
2018-09-04T05:39:15.853Z,18.75
2018-09-04T05:40:15.833Z,18.78
2018-09-04T05:41:15.775Z,18.67
2018-09-04T05:42:15.717Z,18.66
2018-09-04T05:43:15.667Z,18.70
2018-09-04T05:44:15.621Z,18.68
2018-09-04T05:45:15.618Z,18.70
2018-09-04T05:46:15.523Z,18.68
2018-09-04T05:47:15.480Z,18.73
2018-09-04T05:48:15.436Z,18.74
2018-09-04T05:49:15.395Z,18.83
2018-09-04T05:50:15.356Z,18.81
2018-09-04T05:51:15.292Z,18.86
2018-09-04T05:52:15.250Z,18.86
2018-09-04T05:53:15.235Z,18.88
2018-09-04T05:54:15.172Z,18.93
2018-09-04T05:55:15.216Z,18.98
2018-09-04T05:56:15.060Z,18.93
2018-09-04T05:57:15.005Z,19.04
2018-09-04T05:58:14.959Z,19.08
2018-09-04T05:59:14.913Z,19.11
2018-09-04T06:00:14.915Z,19.12
2018-09-04T06:01:14.822Z,19.14
2018-09-04T06:02:14.778Z,19.22
2018-09-04T06:03:14.725Z,19.24
2018-09-04T06:04:14.687Z,19.29
2018-09-04T06:05:14.681Z,19.33
2018-09-04T06:06:14.599Z,19.36
2018-09-04T06:07:14.547Z,19.41
2018-09-04T06:08:14.511Z,19.37
2018-09-04T06:09:14.443Z,19.46
2018-09-04T06:10:14.435Z,19.42
2018-09-04T06:11:14.355Z,19.46
2018-09-04T06:12:14.322Z,19.46
2018-09-04T06:13:14.264Z,19.59
2018-09-04T06:14:14.231Z,19.49
2018-09-04T06:15:14.190Z,19.60
2018-09-04T06:16:14.119Z,19.52
2018-09-04T06:17:14.085Z,19.55
2018-09-04T06:18:14.040Z,19.63
2018-09-04T06:19:13.987Z,19.62
2018-09-04T06:20:13.975Z,19.64
2018-09-04T06:21:13.887Z,19.63
2018-09-04T06:22:13.839Z,19.64
2018-09-04T06:23:13.799Z,19.73
2018-09-04T06:24:13.744Z,19.74
2018-09-04T06:25:13.723Z,19.82
2018-09-04T06:26:13.648Z,19.84
2018-09-04T06:27:13.606Z,19.85
2018-09-04T06:28:13.557Z,19.85
2018-09-04T06:29:13.511Z,19.79
2018-09-04T06:30:13.488Z,19.81
2018-09-04T06:31:13.416Z,19.85
2018-09-04T06:32:13.372Z,19.86
2018-09-04T06:33:13.325Z,19.92
2018-09-04T06:34:13.398Z,19.88
2018-09-04T06:35:13.260Z,19.94
2018-09-04T06:36:13.190Z,19.82
2018-09-04T06:37:13.143Z,19.88
2018-09-04T06:38:13.096Z,19.84
2018-09-04T06:39:13.054Z,19.85
2018-09-04T06:40:13.001Z,19.85
2018-09-04T06:41:12.978Z,19.85
2018-09-04T06:42:12.908Z,19.91
2018-09-04T06:43:12.858Z,19.96
2018-09-04T06:44:12.811Z,19.96
2018-09-04T06:45:12.770Z,19.94
2018-09-04T06:46:12.742Z,19.99
2018-09-04T06:47:12.680Z,19.97
2018-09-04T06:48:12.633Z,19.96
2018-09-04T06:49:12.582Z,20.06
2018-09-04T06:50:12.544Z,20.00
2018-09-04T06:51:12.517Z,20.00
2018-09-04T06:52:12.442Z,19.96
2018-09-04T06:53:12.399Z,19.97
2018-09-04T06:54:12.349Z,20.01
2018-09-04T06:55:12.308Z,20.01
2018-09-04T06:56:12.281Z,19.92
2018-09-04T06:57:12.211Z,19.96
2018-09-04T06:58:12.172Z,20.04
2018-09-04T06:59:12.125Z,20.07
2018-09-04T07:00:12.083Z,20.07
2018-09-04T07:01:12.050Z,20.00
2018-09-04T07:02:11.977Z,20.07
2018-09-04T07:03:11.936Z,20.15
2018-09-04T07:04:11.888Z,20.19
2018-09-04T07:05:11.852Z,20.18
2018-09-04T07:06:11.826Z,20.21
2018-09-04T07:07:11.748Z,20.10
2018-09-04T07:08:11.701Z,20.18
2018-09-04T07:09:11.656Z,20.18
2018-09-04T07:10:11.618Z,20.14
2018-09-04T07:11:11.588Z,20.18
2018-09-04T07:12:11.516Z,20.17
2018-09-04T07:13:11.477Z,20.22
2018-09-04T07:14:11.427Z,20.15
2018-09-04T07:15:11.384Z,20.26
2018-09-04T07:16:11.355Z,20.24
2018-09-04T07:17:11.351Z,20.36
2018-09-04T07:18:11.242Z,20.33
2018-09-04T07:19:11.198Z,20.37
2018-09-04T07:20:11.153Z,20.39
2018-09-04T07:21:11.127Z,20.43
2018-09-04T07:22:11.065Z,20.48
2018-09-04T07:23:11.008Z,20.50
2018-09-04T07:24:10.963Z,20.57
2018-09-04T07:25:10.919Z,20.55
2018-09-04T07:26:10.900Z,20.59
2018-09-04T07:27:10.828Z,20.56
2018-09-04T07:28:10.786Z,20.66
2018-09-04T07:29:10.736Z,20.62
2018-09-04T07:30:10.687Z,20.48
2018-09-04T07:31:10.664Z,20.48
2018-09-04T07:32:10.592Z,20.57
2018-09-04T07:33:10.548Z,20.57
2018-09-04T07:34:10.504Z,20.53
2018-09-04T07:35:10.458Z,20.53
2018-09-04T07:36:10.440Z,20.60
2018-09-04T07:37:10.371Z,20.66
2018-09-04T07:38:10.319Z,20.62
2018-09-04T07:39:10.276Z,20.57
2018-09-04T07:40:10.228Z,20.67
2018-09-04T07:41:10.221Z,20.62
2018-09-04T07:42:10.152Z,20.69
2018-09-04T07:43:10.091Z,20.75
2018-09-04T07:44:10.043Z,20.65
2018-09-04T07:45:10.002Z,20.67
2018-09-04T07:46:09.955Z,20.72
2018-09-04T07:47:09.931Z,20.75
2018-09-04T07:48:09.866Z,20.82
2018-09-04T07:49:09.819Z,20.80
2018-09-04T07:50:09.774Z,20.75
2018-09-04T07:51:09.724Z,20.71
2018-09-04T07:52:09.701Z,20.77
2018-09-04T07:53:09.644Z,20.72
2018-09-04T07:54:09.582Z,20.78
2018-09-04T07:55:09.540Z,20.72
2018-09-04T07:56:09.495Z,20.78
2018-09-04T07:57:09.487Z,20.78
2018-09-04T07:58:09.404Z,20.62
2018-09-04T07:59:09.363Z,20.71
2018-09-04T08:00:09.309Z,20.66
2018-09-04T08:01:09.269Z,20.66
2018-09-04T08:02:09.250Z,20.75
2018-09-04T08:03:09.175Z,20.77
2018-09-04T08:04:09.127Z,20.80
2018-09-04T08:05:09.086Z,20.78
2018-09-04T08:06:09.037Z,20.82
2018-09-04T08:07:09.013Z,20.77
2018-09-04T08:08:08.948Z,20.75
2018-09-04T08:09:08.900Z,20.82
2018-09-04T08:10:08.925Z,20.80
2018-09-04T08:11:08.808Z,20.89
2018-09-04T08:12:08.784Z,20.89
2018-09-04T08:13:08.714Z,20.95
2018-09-04T08:14:08.674Z,21.12
2018-09-04T08:15:08.625Z,21.15
2018-09-04T08:16:08.581Z,21.26
2018-09-04T08:17:08.556Z,21.29
2018-09-04T08:18:08.492Z,21.42
2018-09-04T08:19:08.437Z,21.35
2018-09-04T08:20:08.393Z,21.43
2018-09-04T08:21:08.352Z,21.55
2018-09-04T08:22:08.333Z,21.65
2018-09-04T08:23:08.264Z,21.58
2018-09-04T08:24:08.226Z,21.63
2018-09-04T08:25:08.171Z,21.57
2018-09-04T08:26:08.130Z,21.69
2018-09-04T08:27:08.097Z,21.72
2018-09-04T08:28:08.029Z,21.73
2018-09-04T08:29:07.984Z,21.69
2018-09-04T08:30:07.942Z,21.85
2018-09-04T08:31:07.892Z,21.89
2018-09-04T08:32:07.874Z,21.98
2018-09-04T08:33:14.854Z,22.11
2018-09-04T08:34:07.758Z,22.14
2018-09-04T08:35:07.712Z,22.19
2018-09-04T08:36:07.671Z,22.25
2018-09-04T08:37:07.645Z,22.22
2018-09-04T08:38:07.588Z,22.20
2018-09-04T08:39:07.550Z,22.14
2018-09-04T08:40:07.496Z,22.25
2018-09-04T08:41:07.441Z,22.28
2018-09-04T08:42:07.419Z,22.35
2018-09-04T08:43:07.347Z,22.41
2018-09-04T08:44:07.306Z,22.38
2018-09-04T08:45:07.262Z,22.44
2018-09-04T08:46:07.220Z,22.47
2018-09-04T08:47:07.261Z,22.47
2018-09-04T08:48:07.125Z,22.48
2018-09-04T08:49:07.083Z,22.43
2018-09-04T08:50:07.034Z,22.45
2018-09-04T08:51:06.991Z,22.43
2018-09-04T08:52:06.948Z,22.44
2018-09-04T08:53:06.925Z,22.33
2018-09-04T08:54:06.855Z,22.30
2018-09-04T08:55:06.834Z,22.38
2018-09-04T08:56:06.768Z,22.33
2018-09-04T08:57:06.720Z,22.41
2018-09-04T08:58:06.703Z,22.41
2018-09-04T08:59:06.632Z,22.48
2018-09-04T09:00:06.596Z,22.50
2018-09-04T09:01:06.545Z,22.47
2018-09-04T09:02:06.498Z,22.54
2018-09-04T09:03:06.475Z,22.62
2018-09-04T09:04:06.413Z,22.68
2018-09-04T09:05:06.367Z,22.73
2018-09-04T09:06:06.316Z,22.81
2018-09-04T09:07:06.274Z,22.81
2018-09-04T09:08:06.258Z,22.85
2018-09-04T09:09:06.205Z,22.91
2018-09-04T09:10:06.230Z,22.90
2018-09-04T09:11:06.099Z,23.00
2018-09-04T09:12:06.061Z,23.10
2018-09-04T09:13:06.033Z,23.14
2018-09-04T09:14:05.962Z,23.09
2018-09-04T09:15:05.920Z,23.09
2018-09-04T09:16:05.933Z,23.21
2018-09-04T09:17:05.830Z,23.18
2018-09-04T09:18:05.815Z,23.22
2018-09-04T09:19:05.745Z,23.21
2018-09-04T09:20:05.701Z,23.25
2018-09-04T09:21:05.654Z,23.34
2018-09-04T09:22:05.612Z,23.31
2018-09-04T09:23:05.588Z,23.37
2018-09-04T09:24:05.522Z,23.37
2018-09-04T09:25:05.478Z,23.44
2018-09-04T09:26:05.433Z,23.48
2018-09-04T09:27:05.387Z,23.46
2018-09-04T09:28:05.371Z,23.56
2018-09-04T09:29:05.301Z,23.47
2018-09-04T09:30:05.260Z,23.51
2018-09-04T09:31:05.213Z,23.51
2018-09-04T09:32:05.174Z,23.47
2018-09-04T09:33:05.149Z,23.44
2018-09-04T09:34:05.082Z,23.37
2018-09-04T09:35:05.054Z,23.46
2018-09-04T09:36:04.992Z,23.51
2018-09-04T09:37:04.998Z,23.56
2018-09-04T09:38:04.931Z,23.53
2018-09-04T09:39:04.861Z,23.52
2018-09-04T09:40:04.822Z,23.56
2018-09-04T09:41:04.776Z,23.52
2018-09-04T09:42:04.732Z,23.53
2018-09-04T09:43:04.711Z,23.56
2018-09-04T09:44:04.643Z,23.46
2018-09-04T09:45:04.598Z,23.58
2018-09-04T09:46:04.560Z,23.56
2018-09-04T09:47:04.509Z,23.53
2018-09-04T09:48:04.493Z,23.62
2018-09-04T09:49:04.426Z,23.62
2018-09-04T09:50:04.379Z,23.65
2018-09-04T09:51:04.333Z,23.65
2018-09-04T09:52:04.290Z,23.70
2018-09-04T09:53:04.424Z,23.61
2018-09-04T09:54:04.213Z,23.59
2018-09-04T09:55:04.155Z,23.74
2018-09-04T09:56:04.116Z,23.84
2018-09-04T09:57:04.074Z,23.80
2018-09-04T09:58:04.027Z,23.92
2018-09-04T09:59:04.076Z,23.92
2018-09-04T10:00:03.951Z,23.93
2018-09-04T10:01:03.970Z,23.98
2018-09-04T10:02:03.851Z,23.95
2018-09-04T10:03:03.807Z,23.95
2018-09-04T10:04:03.863Z,24.02
2018-09-04T10:05:03.729Z,24.00
2018-09-04T10:06:03.679Z,24.00
2018-09-04T10:07:03.636Z,24.15
2018-09-04T10:08:03.621Z,24.25
2018-09-04T10:09:03.569Z,24.26
2018-09-04T10:10:03.545Z,24.35
2018-09-04T10:11:03.460Z,24.47
2018-09-04T10:12:03.418Z,24.48
2018-09-04T10:13:03.373Z,24.45
2018-09-04T10:14:03.355Z,24.44
2018-09-04T10:15:03.289Z,24.57
2018-09-04T10:16:03.245Z,24.50
2018-09-04T10:17:03.198Z,24.48
2018-09-04T10:18:03.164Z,24.58
2018-09-04T10:19:03.146Z,24.57
2018-09-04T10:20:03.160Z,24.60
2018-09-04T10:21:03.028Z,24.54
2018-09-04T10:22:02.982Z,24.65
2018-09-04T10:23:02.941Z,24.60
2018-09-04T10:24:02.925Z,24.57
2018-09-04T10:25:02.853Z,24.57
2018-09-04T10:26:02.819Z,24.60
2018-09-04T10:27:02.778Z,24.74
2018-09-04T10:28:02.729Z,24.77
2018-09-04T10:29:02.706Z,24.70
2018-09-04T10:30:02.637Z,24.85
2018-09-04T10:31:02.602Z,24.89
2018-09-04T10:32:02.555Z,24.91
2018-09-04T10:33:02.509Z,24.93
2018-09-04T10:34:02.496Z,24.96
2018-09-04T10:35:02.423Z,24.96
2018-09-04T10:36:02.398Z,25.03
2018-09-04T10:37:02.341Z,25.03
2018-09-04T10:38:02.299Z,25.06
2018-09-04T10:39:02.274Z,25.03
2018-09-04T10:40:02.209Z,25.03
2018-09-04T10:41:02.166Z,25.01
2018-09-04T10:42:02.128Z,25.06
2018-09-04T10:43:02.079Z,25.07
2018-09-04T10:44:02.077Z,25.07
2018-09-04T10:45:02.000Z,25.03
2018-09-04T10:46:01.954Z,25.06
2018-09-04T10:47:01.914Z,25.03
2018-09-04T10:48:01.870Z,25.13
2018-09-04T10:49:01.824Z,25.18
2018-09-04T10:50:01.810Z,25.19
2018-09-04T10:51:01.745Z,25.26
2018-09-04T10:52:01.698Z,25.33
2018-09-04T10:53:01.667Z,25.48
2018-09-04T10:54:01.645Z,25.44
2018-09-04T10:55:01.598Z,25.55
2018-09-04T10:56:01.527Z,25.53
2018-09-04T10:57:01.487Z,25.65
2018-09-04T10:58:01.447Z,25.70
2018-09-04T10:59:01.405Z,25.80
2018-09-04T11:00:01.380Z,25.84
2018-09-04T11:01:01.335Z,25.92
2018-09-04T11:02:01.280Z,25.99
2018-09-04T11:03:01.242Z,25.96
2018-09-04T11:04:01.193Z,26.20
2018-09-04T11:05:01.167Z,26.18
2018-09-04T11:06:01.628Z,26.22
2018-09-04T11:07:01.060Z,26.16
2018-09-04T11:08:01.015Z,26.20
2018-09-04T11:09:00.978Z,26.23
2018-09-04T11:10:01.105Z,26.23
2018-09-04T11:11:00.895Z,26.20
2018-09-04T11:12:00.850Z,26.30
2018-09-04T11:13:00.804Z,26.25
2018-09-04T11:14:00.768Z,26.20
2018-09-04T11:15:00.750Z,26.16
2018-09-04T11:16:00.676Z,26.12
2018-09-04T11:17:00.630Z,26.10
2018-09-04T11:18:00.589Z,26.20
2018-09-04T11:19:00.586Z,26.18
2018-09-04T11:20:00.532Z,26.03
2018-09-04T11:21:00.473Z,26.03
2018-09-04T11:22:00.421Z,26.00
2018-09-04T11:23:00.376Z,26.03
2018-09-04T11:24:00.335Z,26.03
2018-09-04T11:25:00.320Z,26.03
2018-09-04T11:26:00.255Z,26.11
2018-09-04T11:27:00.209Z,26.15
2018-09-04T11:28:00.166Z,26.16
2018-09-04T11:29:00.131Z,26.22
2018-09-04T11:30:00.110Z,26.23
2018-09-04T11:31:00.045Z,26.28
2018-09-04T11:32:00.001Z,26.37
2018-09-04T11:32:59.960Z,26.40
2018-09-04T11:33:59.910Z,26.48
2018-09-04T11:34:59.908Z,26.43
2018-09-04T11:35:59.823Z,26.43
2018-09-04T11:36:59.807Z,26.53
2018-09-04T11:37:59.738Z,26.53
2018-09-04T11:38:59.701Z,26.50
2018-09-04T11:39:59.686Z,26.57
2018-09-04T11:40:59.619Z,26.57
2018-09-04T11:41:59.572Z,26.53
2018-09-04T11:42:59.531Z,26.68
2018-09-04T11:43:59.491Z,26.71
2018-09-04T11:44:59.490Z,26.67
2018-09-04T11:45:59.418Z,26.52
2018-09-04T11:46:59.464Z,26.59
2018-09-04T11:47:59.325Z,26.45
2018-09-04T11:48:59.279Z,26.31
2018-09-04T11:49:59.244Z,26.23
2018-09-04T11:50:59.225Z,26.26
2018-09-04T11:51:59.163Z,26.23
2018-09-04T11:52:59.135Z,26.26
2018-09-04T11:53:59.065Z,26.35
2018-09-04T11:54:59.030Z,26.41
2018-09-04T11:55:59.003Z,26.45
2018-09-04T11:56:58.940Z,26.44
2018-09-04T11:57:58.893Z,26.48
2018-09-04T11:58:58.859Z,26.41
2018-09-04T11:59:58.808Z,26.41
2018-09-04T12:00:58.796Z,26.48
2018-09-04T12:01:58.764Z,26.44
2018-09-04T12:02:58.681Z,26.41
2018-09-04T12:03:58.643Z,26.37
2018-09-04T12:04:58.596Z,26.28
2018-09-04T12:05:58.576Z,26.25
2018-09-04T12:06:58.509Z,26.18
2018-09-04T12:07:58.470Z,26.12
2018-09-04T12:08:58.426Z,26.15
2018-09-04T12:09:58.384Z,26.19
2018-09-04T12:10:58.366Z,26.26
2018-09-04T12:11:58.303Z,26.34
2018-09-04T12:12:58.352Z,26.41
2018-09-04T12:13:58.214Z,26.50
2018-09-04T12:14:58.179Z,26.57
2018-09-04T12:15:58.157Z,26.68
2018-09-04T12:16:58.104Z,26.71
2018-09-04T12:17:58.050Z,26.72
2018-09-04T12:18:58.044Z,26.74
2018-09-04T12:19:57.963Z,26.77
2018-09-04T12:20:58.060Z,26.81
2018-09-04T12:21:57.872Z,26.74
2018-09-04T12:22:57.832Z,26.81
2018-09-04T12:23:57.787Z,26.77
2018-09-04T12:24:57.752Z,26.77
2018-09-04T12:25:57.733Z,26.68
2018-09-04T12:26:57.663Z,26.65
2018-09-04T12:27:57.622Z,26.56
2018-09-04T12:28:57.578Z,26.57
2018-09-04T12:29:57.539Z,26.52
2018-09-04T12:30:57.524Z,26.44
2018-09-04T12:31:57.451Z,26.44
2018-09-04T12:32:57.412Z,26.43
2018-09-04T12:33:57.427Z,26.43
2018-09-04T12:34:57.326Z,26.43
2018-09-04T12:35:57.307Z,26.40
2018-09-04T12:36:57.240Z,26.38
2018-09-04T12:37:57.204Z,26.38
2018-09-04T12:38:57.158Z,26.49
2018-09-04T12:39:57.115Z,26.49
2018-09-04T12:40:57.095Z,26.50
2018-09-04T12:41:57.052Z,26.55
2018-09-04T12:42:56.990Z,26.49
2018-09-04T12:43:56.950Z,26.53
2018-09-04T12:44:56.900Z,26.53
2018-09-04T12:45:56.884Z,26.57
2018-09-04T12:46:56.814Z,26.53
2018-09-04T12:47:56.824Z,26.53
2018-09-04T12:48:56.742Z,26.59
2018-09-04T12:49:56.700Z,26.53
2018-09-04T12:50:56.694Z,26.57
2018-09-04T12:51:56.608Z,26.53